Time,TemperatureF,DewpointF,PressureIn,WindDirection,WindDirectionDegrees,WindSpeedMPH,WindSpeedGustMPH,Humidity,HourlyPrecipIn,Conditions,Clouds,dailyrainin,SoftwareType,DateUTC
2013-05-25 00:01:00,43.9,38.3,30.18,South,180,0.0,-999.0,80,-99.99,,,-99.99,MetarLogicWeatherSta,2013-05-25 04:01:00,
2013-05-25 00:06:00,43.9,38.5,30.18,South,180,0.0,-999.0,81,-99.99,,,-99.99,MetarLogicWeatherSta,2013-05-25 04:06:00,
2013-05-25 00:11:00,43.9,38.6,30.18,South,180,0.0,-999.0,81,-99.99,,,-99.99,MetarLogicWeatherSta,2013-05-25 04:11:00,
2013-05-25 00:16:00,43.7,38.6,30.18,SSW,202,0.0,-999.0,82,-99.99,,,-99.99,MetarLogicWeatherSta,2013-05-25 04:16:00,
2013-05-25 00:21:00,43.5,38.3,30.18,South,180,0.0,-999.0,81,-99.99,,,-99.99,MetarLogicWeatherSta,2013-05-25 04:21:00,
2013-05-25 00:26:00,43.3,38.1,30.18,SSW,202,0.0,-999.0,81,-99.99,,,-99.99,MetarLogicWeatherSta,2013-05-25 04:26:00,
2013-05-25 00:31:00,42.9,37.8,30.18,South,180,0.0,-999.0,81,-99.99,,,-99.99,MetarLogicWeatherSta,2013-05-25 04:31:00,
2013-05-25 00:36:00,42.5,37.5,30.18,SSW,202,0.0,-999.0,82,-99.99,,,-99.99,MetarLogicWeatherSta,2013-05-25 04:36:00,
2013-05-25 00:41:00,42.1,37.3,30.17,SSW,202,0.0,-999.0,82,-99.99,,,-99.99,MetarLogicWeatherSta,2013-05-25 04:41:00,
2013-05-25 00:46:00,42.0,37.4,30.18,SSE,157,0.0,-999.0,83,-99.99,,,-99.99,MetarLogicWeatherSta,2013-05-25 04:46:00,
2013-05-25 00:51:00,41.7,37.3,30.18,South,180,0.0,-999.0,83,-99.99,,,-99.99,MetarLogicWeatherSta,2013-05-25 04:51:00,
2013-05-25 00:56:00,41.5,37.1,30.17,South,180,0.0,-999.0,84,-99.99,,,-99.99,MetarLogicWeatherSta,2013-05-25 04:56:00,
2013-05-25 01:01:00,41.3,37.1,30.17,South,180,0.0,-999.0,84,-99.99,,,-99.99,MetarLogicWeatherSta,2013-05-25 05:01:00,
2013-05-25 01:06:00,41.2,37.1,30.17,South,180,0.0,-999.0,85,-99.99,,,-99.99,MetarLogicWeatherSta,2013-05-25 05:06:00,
2013-05-25 01:11:00,40.8,37.1,30.17,South,180,0.0,-999.0,86,-99.99,,,-99.99,MetarLogicWeatherSta,2013-05-25 05:11:00,
2013-05-25 01:16:00,40.7,36.9,30.17,SW,225,0.0,-999.0,86,-99.99,,,-99.99,MetarLogicWeatherSta,2013-05-25 05:16:00,
2013-05-25 01:21:00,40.6,36.9,30.17,South,180,0.0,-999.0,86,-99.99,,,-99.99,MetarLogicWeatherSta,2013-05-25 05:21:00,
2013-05-25 01:26:00,40.4,36.8,30.17,South,180,0.0,-999.0,86,-99.99,,,-99.99,MetarLogicWeatherSta,2013-05-25 05:26:00,
2013-05-25 01:31:00,40.5,37.0,30.17,South,180,0.0,-999.0,87,-99.99,,,-99.99,MetarLogicWeatherSta,2013-05-25 05:31:00,
2013-05-25 01:36:00,40.7,37.4,30.17,South,180,1.0,-999.0,87,-99.99,,,-99.99,MetarLogicWeatherSta,2013-05-25 05:36:00,
2013-05-25 01:41:00,40.6,37.2,30.17,South,180,0.0,-999.0,87,-99.99,,,-99.99,MetarLogicWeatherSta,2013-05-25 05:41:00,
2013-05-25 01:46:00,40.4,37.1,30.17,South,180,0.0,-999.0,87,-99.99,,,-99.99,MetarLogicWeatherSta,2013-05-25 05:46:00,
2013-05-25 01:51:00,40.4,37.1,30.17,South,180,0.0,-999.0,87,-99.99,,,-99.99,MetarLogicWeatherSta,2013-05-25 05:51:00,
2013-05-25 01:56:00,40.3,37.0,30.17,South,180,0.0,-999.0,88,-99.99,,,-99.99,MetarLogicWeatherSta,2013-05-25 05:56:00,
2013-05-25 02:01:00,40.3,37.0,30.17,South,180,0.0,-999.0,87,-99.99,,,-99.99,MetarLogicWeatherSta,2013-05-25 06:01:00,
2013-05-25 02:06:00,40.4,37.1,30.17,South,180,0.0,-999.0,87,-99.99,,,-99.99,MetarLogicWeatherSta,2013-05-25 06:06:00,
2013-05-25 02:11:00,40.2,37.0,30.17,South,180,0.0,-999.0,88,-99.99,,,-99.99,MetarLogicWeatherSta,2013-05-25 06:11:00,
2013-05-25 02:16:00,40.4,37.2,30.17,SSW,202,0.0,-999.0,88,-99.99,,,-99.99,MetarLogicWeatherSta,2013-05-25 06:16:00,
2013-05-25 02:21:00,40.3,37.2,30.17,South,180,0.0,-999.0,88,-99.99,,,-99.99,MetarLogicWeatherSta,2013-05-25 06:21:00,
2013-05-25 02:26:00,40.3,37.2,30.17,South,180,0.0,-999.0,88,-99.99,,,-99.99,MetarLogicWeatherSta,2013-05-25 06:26:00,
2013-05-25 02:31:00,40.2,36.9,30.17,SSW,202,0.0,-999.0,87,-99.99,,,-99.99,MetarLogicWeatherSta,2013-05-25 06:31:00,
2013-05-25 02:36:00,40.0,36.9,30.17,South,180,0.0,-999.0,88,-99.99,,,-99.99,MetarLogicWeatherSta,2013-05-25 06:36:00,
2013-05-25 02:41:00,40.0,36.9,30.17,South,180,0.0,-999.0,88,-99.99,,,-99.99,MetarLogicWeatherSta,2013-05-25 06:41:00,
2013-05-25 02:46:00,39.7,36.4,30.17,SSW,202,1.0,-999.0,88,-99.99,,,-99.99,MetarLogicWeatherSta,2013-05-25 06:46:00,
2013-05-25 02:51:00,39.8,36.6,30.17,SW,225,1.0,-999.0,88,-99.99,,,-99.99,MetarLogicWeatherSta,2013-05-25 06:51:00,
2013-05-25 02:56:00,39.6,36.5,30.17,South,180,0.0,-999.0,88,-99.99,,,-99.99,MetarLogicWeatherSta,2013-05-25 06:56:00,
2013-05-25 03:01:00,39.7,36.6,30.17,South,180,0.0,-999.0,88,-99.99,,,-99.99,MetarLogicWeatherSta,2013-05-25 07:01:00,
2013-05-25 03:06:00,39.7,36.6,30.17,South,180,0.0,-999.0,88,-99.99,,,-99.99,MetarLogicWeatherSta,2013-05-25 07:06:00,
2013-05-25 03:11:00,39.5,36.4,30.17,South,180,0.0,-999.0,88,-99.99,,,-99.99,MetarLogicWeatherSta,2013-05-25 07:11:00,
2013-05-25 03:16:00,39.9,36.8,30.17,South,180,0.0,-999.0,88,-99.99,,,-99.99,MetarLogicWeatherSta,2013-05-25 07:16:00,
2013-05-25 03:21:00,39.8,36.7,30.17,WNW,292,3.0,-999.0,88,-99.99,,,-99.99,MetarLogicWeatherSta,2013-05-25 07:21:00,
2013-05-25 03:26:00,39.5,36.4,30.17,SW,225,0.0,-999.0,88,-99.99,,,-99.99,MetarLogicWeatherSta,2013-05-25 07:26:00,
2013-05-25 03:31:00,39.5,36.3,30.17,SSW,202,0.0,-999.0,88,-99.99,,,-99.99,MetarLogicWeatherSta,2013-05-25 07:31:00,
2013-05-25 03:36:00,39.5,36.4,30.17,South,180,0.0,-999.0,88,-99.99,,,-99.99,MetarLogicWeatherSta,2013-05-25 07:36:00,
2013-05-25 03:41:00,39.4,36.3,30.18,SSW,202,0.0,-999.0,88,-99.99,,,-99.99,MetarLogicWeatherSta,2013-05-25 07:41:00,
2013-05-25 03:46:00,39.1,36.1,30.18,South,180,0.0,-999.0,88,-99.99,,,-99.99,MetarLogicWeatherSta,2013-05-25 07:46:00,
2013-05-25 03:51:00,39.1,36.2,30.18,South,180,0.0,-999.0,89,-99.99,,,-99.99,MetarLogicWeatherSta,2013-05-25 07:51:00,
2013-05-25 03:56:00,39.0,36.1,30.18,SSW,202,0.0,-999.0,89,-99.99,,,-99.99,MetarLogicWeatherSta,2013-05-25 07:56:00,
2013-05-25 04:01:00,39.0,36.1,30.18,SSW,202,0.0,-999.0,89,-99.99,,,-99.99,MetarLogicWeatherSta,2013-05-25 08:01:00,
2013-05-25 04:06:00,38.8,36.0,30.18,South,180,0.0,-999.0,89,-99.99,,,-99.99,MetarLogicWeatherSta,2013-05-25 08:06:00,
2013-05-25 04:11:00,38.8,36.0,30.18,South,180,0.0,-999.0,89,-99.99,,,-99.99,MetarLogicWeatherSta,2013-05-25 08:11:00,
2013-05-25 04:16:00,38.8,36.1,30.19,South,180,0.0,-999.0,89,-99.99,,,-99.99,MetarLogicWeatherSta,2013-05-25 08:16:00,
2013-05-25 04:21:00,38.7,36.0,30.18,South,180,0.0,-999.0,89,-99.99,,,-99.99,MetarLogicWeatherSta,2013-05-25 08:21:00,
2013-05-25 04:26:00,38.6,36.0,30.18,SSW,202,0.0,-999.0,90,-99.99,,,-99.99,MetarLogicWeatherSta,2013-05-25 08:26:00,
2013-05-25 04:31:00,38.5,36.0,30.19,SSW,202,0.0,-999.0,90,-99.99,,,-99.99,MetarLogicWeatherSta,2013-05-25 08:31:00,
2013-05-25 04:36:00,38.5,35.8,30.18,South,180,0.0,-999.0,89,-99.99,,,-99.99,MetarLogicWeatherSta,2013-05-25 08:36:00,
2013-05-25 04:41:00,38.1,35.6,30.18,South,180,0.0,-999.0,90,-99.99,,,-99.99,MetarLogicWeatherSta,2013-05-25 08:41:00,
2013-05-25 04:46:00,38.1,35.6,30.18,South,180,0.0,-999.0,90,-99.99,,,-99.99,MetarLogicWeatherSta,2013-05-25 08:46:00,
2013-05-25 04:51:00,38.0,35.5,30.18,South,180,0.0,-999.0,90,-99.99,,,-99.99,MetarLogicWeatherSta,2013-05-25 08:51:00,
2013-05-25 04:56:00,37.8,35.4,30.18,SSW,202,0.0,-999.0,90,-99.99,,,-99.99,MetarLogicWeatherSta,2013-05-25 08:56:00,
2013-05-25 05:01:00,38.0,35.7,30.18,SSW,202,0.0,-999.0,91,-99.99,,,-99.99,MetarLogicWeatherSta,2013-05-25 09:01:00,
2013-05-25 05:06:00,37.7,35.6,30.18,WSW,247,0.0,-999.0,91,-99.99,,,-99.99,MetarLogicWeatherSta,2013-05-25 09:06:00,
2013-05-25 05:11:00,37.7,35.4,30.18,South,180,0.0,-999.0,91,-99.99,,,-99.99,MetarLogicWeatherSta,2013-05-25 09:11:00,
2013-05-25 05:16:00,37.5,35.4,30.17,South,180,0.0,-999.0,91,-99.99,,,-99.99,MetarLogicWeatherSta,2013-05-25 09:16:00,
2013-05-25 05:21:00,37.4,35.3,30.18,South,180,0.0,-999.0,91,-99.99,,,-99.99,MetarLogicWeatherSta,2013-05-25 09:21:00,
2013-05-25 05:26:00,37.6,35.4,30.17,SW,225,1.0,-999.0,91,-99.99,,,-99.99,MetarLogicWeatherSta,2013-05-25 09:26:00,
2013-05-25 05:31:00,37.3,35.2,30.17,WSW,247,0.0,-999.0,91,-99.99,,,-99.99,MetarLogicWeatherSta,2013-05-25 09:31:00,
2013-05-25 05:38:00,37.3,35.2,30.17,South,180,0.0,-999.0,91,-99.99,,,-99.99,MetarLogicWeatherSta,2013-05-25 09:38:00,
2013-05-25 05:43:00,37.2,35.2,30.17,SSW,202,0.0,-999.0,92,-99.99,,,-99.99,MetarLogicWeatherSta,2013-05-25 09:43:00,
2013-05-25 05:48:00,37.2,35.2,30.18,South,180,0.0,-999.0,92,-99.99,,,-99.99,MetarLogicWeatherSta,2013-05-25 09:48:00,
2013-05-25 05:53:00,36.9,35.0,30.17,South,180,0.0,-999.0,92,-99.99,,,-99.99,MetarLogicWeatherSta,2013-05-25 09:53:00,
2013-05-25 05:58:00,37.0,35.1,30.17,South,180,0.0,-999.0,92,-99.99,,,-99.99,MetarLogicWeatherSta,2013-05-25 09:58:00,
2013-05-25 06:03:00,37.0,35.1,30.17,South,180,0.0,-999.0,92,-99.99,,,-99.99,MetarLogicWeatherSta,2013-05-25 10:03:00,
2013-05-25 06:08:00,37.0,35.0,30.18,SSW,202,0.0,-999.0,92,-99.99,,,-99.99,MetarLogicWeatherSta,2013-05-25 10:08:00,
2013-05-25 06:13:00,37.1,35.3,30.18,South,180,0.0,-999.0,92,-99.99,,,-99.99,MetarLogicWeatherSta,2013-05-25 10:13:00,
2013-05-25 06:18:00,37.2,35.3,30.17,South,180,0.0,-999.0,93,-99.99,,,-99.99,MetarLogicWeatherSta,2013-05-25 10:18:00,
2013-05-25 06:23:00,37.5,35.7,30.18,South,180,0.0,-999.0,93,-99.99,,,-99.99,MetarLogicWeatherSta,2013-05-25 10:23:00,
2013-05-25 06:28:00,37.5,35.8,30.18,South,180,0.0,-999.0,93,-99.99,,,-99.99,MetarLogicWeatherSta,2013-05-25 10:28:00,
2013-05-25 06:33:00,37.5,35.7,30.18,SSE,157,0.0,-999.0,93,-99.99,,,-99.99,MetarLogicWeatherSta,2013-05-25 10:33:00,
2013-05-25 06:38:00,37.7,35.8,30.18,South,180,0.0,-999.0,92,-99.99,,,-99.99,MetarLogicWeatherSta,2013-05-25 10:38:00,
2013-05-25 06:43:00,38.0,36.1,30.18,South,180,0.0,-999.0,92,-99.99,,,-99.99,MetarLogicWeatherSta,2013-05-25 10:43:00,
2013-05-25 06:48:00,38.5,36.4,30.18,SSW,202,1.0,-999.0,92,-99.99,,,-99.99,MetarLogicWeatherSta,2013-05-25 10:48:00,
2013-05-25 06:53:00,38.5,36.4,30.18,South,180,0.0,-999.0,91,-99.99,,,-99.99,MetarLogicWeatherSta,2013-05-25 10:53:00,
2013-05-25 06:58:00,38.9,36.5,30.19,SW,225,0.0,-999.0,91,-99.99,,,-99.99,MetarLogicWeatherSta,2013-05-25 10:58:00,
2013-05-25 07:03:00,39.1,36.4,30.19,SSW,202,0.0,-999.0,89,-99.99,,,-99.99,MetarLogicWeatherSta,2013-05-25 11:03:00,
2013-05-25 07:08:00,39.4,36.6,30.19,SSW,202,0.0,-999.0,89,-99.99,,,-99.99,MetarLogicWeatherSta,2013-05-25 11:08:00,
2013-05-25 07:13:00,39.7,36.7,30.19,SW,225,0.0,-999.0,88,-99.99,,,-99.99,MetarLogicWeatherSta,2013-05-25 11:13:00,
2013-05-25 07:18:00,39.8,36.5,30.19,South,180,0.0,-999.0,87,-99.99,,,-99.99,MetarLogicWeatherSta,2013-05-25 11:18:00,
2013-05-25 07:23:00,40.2,36.8,30.19,West,270,4.0,-999.0,87,-99.99,,,-99.99,MetarLogicWeatherSta,2013-05-25 11:23:00,
2013-05-25 07:28:00,40.4,36.4,30.19,WNW,292,1.0,-999.0,85,-99.99,,,-99.99,MetarLogicWeatherSta,2013-05-25 11:28:00,
2013-05-25 07:33:00,40.7,36.5,30.19,WSW,247,3.0,-999.0,84,-99.99,,,-99.99,MetarLogicWeatherSta,2013-05-25 11:33:00,
2013-05-25 07:38:00,41.0,36.8,30.19,South,180,0.0,-999.0,84,-99.99,,,-99.99,MetarLogicWeatherSta,2013-05-25 11:38:00,
2013-05-25 07:43:00,41.2,37.0,30.20,SSW,202,0.0,-999.0,84,-99.99,,,-99.99,MetarLogicWeatherSta,2013-05-25 11:43:00,
2013-05-25 07:48:00,41.8,37.7,30.19,SW,225,0.0,-999.0,84,-99.99,,,-99.99,MetarLogicWeatherSta,2013-05-25 11:48:00,
2013-05-25 07:53:00,42.0,37.2,30.19,South,180,0.0,-999.0,83,-99.99,,,-99.99,MetarLogicWeatherSta,2013-05-25 11:53:00,
2013-05-25 07:58:00,42.2,36.9,30.20,NW,315,4.0,-999.0,81,-99.99,,,-99.99,MetarLogicWeatherSta,2013-05-25 11:58:00,
2013-05-25 08:03:00,42.8,37.3,30.20,WSW,247,1.0,-999.0,80,-99.99,,,-99.99,MetarLogicWeatherSta,2013-05-25 12:03:00,
2013-05-25 08:08:00,43.3,36.6,30.20,SW,225,3.0,-999.0,77,-99.99,,,-99.99,MetarLogicWeatherSta,2013-05-25 12:08:00,
2013-05-25 08:13:00,43.3,36.8,30.20,SW,225,1.0,-999.0,77,-99.99,,,-99.99,MetarLogicWeatherSta,2013-05-25 12:13:00,
2013-05-25 08:18:00,43.5,36.6,30.20,South,180,0.0,-999.0,76,-99.99,,,-99.99,MetarLogicWeatherSta,2013-05-25 12:18:00,
2013-05-25 08:23:00,43.9,36.8,30.20,SSW,202,1.0,-999.0,75,-99.99,,,-99.99,MetarLogicWeatherSta,2013-05-25 12:23:00,
2013-05-25 08:28:00,44.3,36.3,30.21,WSW,247,3.0,-999.0,73,-99.99,,,-99.99,MetarLogicWeatherSta,2013-05-25 12:28:00,
2013-05-25 08:33:00,44.4,36.2,30.20,SW,225,0.0,-999.0,72,-99.99,,,-99.99,MetarLogicWeatherSta,2013-05-25 12:33:00,
2013-05-25 08:38:00,44.7,36.2,30.20,SSW,202,1.0,-999.0,72,-99.99,,,-99.99,MetarLogicWeatherSta,2013-05-25 12:38:00,
2013-05-25 08:43:00,45.0,36.5,30.20,SSW,202,1.0,-999.0,71,-99.99,,,-99.99,MetarLogicWeatherSta,2013-05-25 12:43:00,
2013-05-25 08:48:00,45.5,36.5,30.20,WSW,247,1.0,-999.0,70,-99.99,,,-99.99,MetarLogicWeatherSta,2013-05-25 12:48:00,
2013-05-25 08:53:00,45.4,34.8,30.20,WSW,247,3.0,-999.0,66,-99.99,,,-99.99,MetarLogicWeatherSta,2013-05-25 12:53:00,
2013-05-25 08:58:00,45.5,35.6,30.20,WNW,292,4.0,-999.0,67,-99.99,,,-99.99,MetarLogicWeatherSta,2013-05-25 12:58:00,
2013-05-25 09:03:00,45.4,35.5,30.21,West,270,3.0,-999.0,67,-99.99,,,-99.99,MetarLogicWeatherSta,2013-05-25 13:03:00,
2013-05-25 09:08:00,45.2,34.5,30.21,WSW,247,4.0,-999.0,65,-99.99,,,-99.99,MetarLogicWeatherSta,2013-05-25 13:08:00,
2013-05-25 09:15:00,45.3,35.6,30.21,WSW,247,3.0,-999.0,68,-99.99,,,-99.99,MetarLogicWeatherSta,2013-05-25 13:15:00,
2013-05-25 09:20:00,46.2,36.1,30.21,WSW,247,6.0,-999.0,67,-99.99,,,-99.99,MetarLogicWeatherSta,2013-05-25 13:20:00,
2013-05-25 09:25:00,46.7,35.9,30.21,SW,225,4.0,-999.0,65,-99.99,,,-99.99,MetarLogicWeatherSta,2013-05-25 13:25:00,
2013-05-25 09:30:00,47.6,37.0,30.21,WSW,247,3.0,-999.0,66,-99.99,,,-99.99,MetarLogicWeatherSta,2013-05-25 13:30:00,
2013-05-25 09:35:00,47.5,35.5,30.20,SW,225,6.0,-999.0,62,-99.99,,,-99.99,MetarLogicWeatherSta,2013-05-25 13:35:00,
2013-05-25 09:40:00,47.8,36.1,30.20,SW,225,3.0,-999.0,63,-99.99,,,-99.99,MetarLogicWeatherSta,2013-05-25 13:40:00,
2013-05-25 09:45:00,48.3,36.9,30.20,SW,225,1.0,-999.0,64,-99.99,,,-99.99,MetarLogicWeatherSta,2013-05-25 13:45:00,
2013-05-25 09:50:00,48.3,35.7,30.20,WSW,247,3.0,-999.0,61,-99.99,,,-99.99,MetarLogicWeatherSta,2013-05-25 13:50:00,
2013-05-25 09:55:00,48.4,37.2,30.20,SW,225,3.0,-999.0,65,-99.99,,,-99.99,MetarLogicWeatherSta,2013-05-25 13:55:00,
2013-05-25 10:00:00,49.1,37.1,30.19,WSW,247,6.0,-999.0,63,-99.99,,,-99.99,MetarLogicWeatherSta,2013-05-25 14:00:00,
2013-05-25 10:05:00,48.9,37.2,30.19,SW,225,4.0,-999.0,63,-99.99,,,-99.99,MetarLogicWeatherSta,2013-05-25 14:05:00,
2013-05-25 10:10:00,49.1,38.0,30.19,WSW,247,3.0,-999.0,65,-99.99,,,-99.99,MetarLogicWeatherSta,2013-05-25 14:10:00,
2013-05-25 10:15:00,49.8,36.6,30.19,West,270,9.0,-999.0,60,-99.99,,,-99.99,MetarLogicWeatherSta,2013-05-25 14:15:00,
2013-05-25 10:20:00,49.8,37.4,30.19,NW,315,4.0,-999.0,61,-99.99,,,-99.99,MetarLogicWeatherSta,2013-05-25 14:20:00,
2013-05-25 10:28:00,50.1,37.2,30.19,West,263,3.5,11.0,60,-99.99,,,-99.99,MetarLogicWeatherSta,2013-05-25 14:28:00,
2013-05-25 10:33:00,50.3,38.0,30.19,WSW,247,6.0,-999.0,62,-99.99,,,-99.99,MetarLogicWeatherSta,2013-05-25 14:33:00,
2013-05-25 10:38:00,50.1,37.8,30.19,SW,225,1.0,-999.0,62,-99.99,,,-99.99,MetarLogicWeatherSta,2013-05-25 14:38:00,
2013-05-25 10:43:00,50.4,37.1,30.19,WSW,247,4.0,-999.0,59,-99.99,,,-99.99,MetarLogicWeatherSta,2013-05-25 14:43:00,
2013-05-25 10:48:00,50.8,37.5,30.19,WSW,247,4.0,-999.0,60,-99.99,,,-99.99,MetarLogicWeatherSta,2013-05-25 14:48:00,
2013-05-25 10:56:00,50.7,37.9,30.19,SW,225,1.0,-999.0,61,-99.99,,,-99.99,MetarLogicWeatherSta,2013-05-25 14:56:00,
2013-05-25 11:01:00,51.3,37.7,30.19,WNW,286,6.0,14.0,59,-99.99,,,-99.99,MetarLogicWeatherSta,2013-05-25 15:01:00,
2013-05-25 11:06:00,51.1,38.6,30.19,SSW,202,1.0,-999.0,62,-99.99,,,-99.99,MetarLogicWeatherSta,2013-05-25 15:06:00,
2013-05-25 11:11:00,51.6,36.9,30.19,WNW,292,4.0,-999.0,56,-99.99,,,-99.99,MetarLogicWeatherSta,2013-05-25 15:11:00,
2013-05-25 11:16:00,51.9,37.0,30.19,WSW,247,3.0,-999.0,56,-99.99,,,-99.99,MetarLogicWeatherSta,2013-05-25 15:16:00,
2013-05-25 11:21:00,51.8,37.2,30.19,SW,225,4.0,-999.0,57,-99.99,,,-99.99,MetarLogicWeatherSta,2013-05-25 15:21:00,
2013-05-25 11:26:00,51.8,37.2,30.19,SSW,202,6.0,-999.0,57,-99.99,,,-99.99,MetarLogicWeatherSta,2013-05-25 15:26:00,
2013-05-25 11:31:00,52.2,38.0,30.19,SSW,202,4.0,-999.0,58,-99.99,,,-99.99,MetarLogicWeatherSta,2013-05-25 15:31:00,
2013-05-25 11:37:00,52.3,36.6,30.20,WSW,247,8.0,-999.0,54,-99.99,,,-99.99,MetarLogicWeatherSta,2013-05-25 15:37:00,
2013-05-25 11:42:00,51.5,35.2,30.20,SSW,202,1.0,-999.0,53,-99.99,,,-99.99,MetarLogicWeatherSta,2013-05-25 15:42:00,
2013-05-25 11:47:00,51.0,35.9,30.20,West,270,4.0,-999.0,56,-99.99,,,-99.99,MetarLogicWeatherSta,2013-05-25 15:47:00,
2013-05-25 11:52:00,51.1,35.8,30.21,WSW,247,6.0,-999.0,55,-99.99,,,-99.99,MetarLogicWeatherSta,2013-05-25 15:52:00,
2013-05-25 12:00:00,51.1,35.4,30.20,NW,315,3.0,-999.0,54,-99.99,,,-99.99,MetarLogicWeatherSta,2013-05-25 16:00:00,
2013-05-25 12:05:00,51.2,35.4,30.20,SW,225,4.0,-999.0,54,-99.99,,,-99.99,MetarLogicWeatherSta,2013-05-25 16:05:00,
2013-05-25 12:10:00,52.4,36.8,30.20,SW,225,3.0,-999.0,55,-99.99,,,-99.99,MetarLogicWeatherSta,2013-05-25 16:10:00,
2013-05-25 12:15:00,52.8,36.2,30.20,WSW,247,1.0,-999.0,52,-99.99,,,-99.99,MetarLogicWeatherSta,2013-05-25 16:15:00,
2013-05-25 12:22:00,52.6,34.3,30.21,WNW,292,6.0,-999.0,49,-99.99,,,-99.99,MetarLogicWeatherSta,2013-05-25 16:22:00,
2013-05-25 12:29:00,51.8,34.7,30.20,WNW,285,2.6,13.0,51,-99.99,,,-99.99,MetarLogicWeatherSta,2013-05-25 16:29:00,
2013-05-25 12:34:00,52.2,35.9,30.19,NW,315,6.0,-999.0,53,-99.99,,,-99.99,MetarLogicWeatherSta,2013-05-25 16:34:00,
2013-05-25 12:39:00,52.1,35.2,30.20,WNW,292,3.0,-999.0,52,-99.99,,,-99.99,MetarLogicWeatherSta,2013-05-25 16:39:00,
2013-05-25 12:46:00,52.1,35.2,30.19,WSW,258,5.8,13.0,52,-99.99,,,-99.99,MetarLogicWeatherSta,2013-05-25 16:46:00,
2013-05-25 12:51:00,52.0,35.6,30.20,West,275,5.4,13.0,53,-99.99,,,-99.99,MetarLogicWeatherSta,2013-05-25 16:51:00,
2013-05-25 12:56:00,51.5,35.9,30.20,West,260,2.9,14.0,54,-99.99,,,-99.99,MetarLogicWeatherSta,2013-05-25 16:56:00,
2013-05-25 13:01:00,52.1,36.4,30.20,West,270,3.0,-999.0,54,-99.99,,,-99.99,MetarLogicWeatherSta,2013-05-25 17:01:00,
2013-05-25 13:06:00,51.9,35.2,30.21,WSW,247,4.0,-999.0,52,-99.99,,,-99.99,MetarLogicWeatherSta,2013-05-25 17:06:00,
2013-05-25 13:11:00,51.4,34.9,30.21,SSW,202,0.0,-999.0,53,-99.99,,,-99.99,MetarLogicWeatherSta,2013-05-25 17:11:00,
2013-05-25 13:16:00,51.9,35.6,30.20,WNW,292,3.0,-999.0,53,-99.99,,,-99.99,MetarLogicWeatherSta,2013-05-25 17:16:00,
2013-05-25 13:22:00,51.8,36.2,30.20,WSW,247,3.0,-999.0,54,-99.99,,,-99.99,MetarLogicWeatherSta,2013-05-25 17:22:00,
2013-05-25 13:27:00,51.9,34.1,30.20,SW,225,0.0,-999.0,50,-99.99,,,-99.99,MetarLogicWeatherSta,2013-05-25 17:27:00,
2013-05-25 13:32:00,51.7,36.6,30.20,SW,225,4.0,-999.0,55,-99.99,,,-99.99,MetarLogicWeatherSta,2013-05-25 17:32:00,
2013-05-25 13:37:00,52.0,35.7,30.20,SW,225,4.0,-999.0,53,-99.99,,,-99.99,MetarLogicWeatherSta,2013-05-25 17:37:00,
2013-05-25 13:42:00,52.5,34.8,30.19,West,270,4.0,-999.0,50,-99.99,,,-99.99,MetarLogicWeatherSta,2013-05-25 17:42:00,
2013-05-25 13:47:00,53.5,36.5,30.19,WNW,292,3.0,-999.0,52,-99.99,,,-99.99,MetarLogicWeatherSta,2013-05-25 17:47:00,
2013-05-25 13:52:00,53.6,36.0,30.19,WSW,256,6.0,13.0,51,-99.99,,,-99.99,MetarLogicWeatherSta,2013-05-25 17:52:00,
2013-05-25 13:57:00,53.5,35.6,30.19,SSW,202,1.0,-999.0,50,-99.99,,,-99.99,MetarLogicWeatherSta,2013-05-25 17:57:00,
2013-05-25 14:02:00,52.3,35.0,30.19,SW,225,3.0,-999.0,51,-99.99,,,-99.99,MetarLogicWeatherSta,2013-05-25 18:02:00,
2013-05-25 14:07:00,52.8,34.8,30.19,WSW,247,4.0,-999.0,50,-99.99,,,-99.99,MetarLogicWeatherSta,2013-05-25 18:07:00,
2013-05-25 14:12:00,53.2,35.7,30.19,SW,225,3.0,-999.0,51,-99.99,,,-99.99,MetarLogicWeatherSta,2013-05-25 18:12:00,
2013-05-25 14:17:00,53.5,36.4,30.19,WSW,247,4.0,-999.0,51,-99.99,,,-99.99,MetarLogicWeatherSta,2013-05-25 18:17:00,
2013-05-25 14:22:00,53.4,36.2,30.19,West,270,8.0,-999.0,51,-99.99,,,-99.99,MetarLogicWeatherSta,2013-05-25 18:22:00,
2013-05-25 14:27:00,53.3,35.5,30.19,SSW,202,1.0,-999.0,50,-99.99,,,-99.99,MetarLogicWeatherSta,2013-05-25 18:27:00,
2013-05-25 14:32:00,53.6,35.1,30.18,SW,225,4.0,-999.0,49,-99.99,,,-99.99,MetarLogicWeatherSta,2013-05-25 18:32:00,
2013-05-25 14:37:00,53.0,35.0,30.18,West,270,6.0,-999.0,50,-99.99,,,-99.99,MetarLogicWeatherSta,2013-05-25 18:37:00,
2013-05-25 14:42:00,53.5,34.6,30.18,West,270,4.0,-999.0,48,-99.99,,,-99.99,MetarLogicWeatherSta,2013-05-25 18:42:00,
2013-05-25 14:47:00,54.0,35.3,30.18,West,270,3.0,-999.0,48,-99.99,,,-99.99,MetarLogicWeatherSta,2013-05-25 18:47:00,
2013-05-25 14:52:00,53.9,35.8,30.18,WSW,257,3.9,14.0,49,-99.99,,,-99.99,MetarLogicWeatherSta,2013-05-25 18:52:00,
2013-05-25 14:57:00,53.5,34.2,30.18,SW,225,6.0,-999.0,47,-99.99,,,-99.99,MetarLogicWeatherSta,2013-05-25 18:57:00,
2013-05-25 15:02:00,53.8,35.3,30.17,WNW,292,6.0,-999.0,49,-99.99,,,-99.99,MetarLogicWeatherSta,2013-05-25 19:02:00,
2013-05-25 15:07:00,53.7,35.8,30.17,SSW,202,6.0,-999.0,50,-99.99,,,-99.99,MetarLogicWeatherSta,2013-05-25 19:07:00,
2013-05-25 15:12:00,53.9,34.2,30.17,West,270,6.0,-999.0,46,-99.99,,,-99.99,MetarLogicWeatherSta,2013-05-25 19:12:00,
2013-05-25 15:17:00,53.5,34.5,30.17,SW,225,1.0,-999.0,48,-99.99,,,-99.99,MetarLogicWeatherSta,2013-05-25 19:17:00,
2013-05-25 15:22:00,53.7,36.0,30.17,SSW,202,1.0,-999.0,50,-99.99,,,-99.99,MetarLogicWeatherSta,2013-05-25 19:22:00,
2013-05-25 15:27:00,54.4,36.7,30.17,West,270,1.0,-999.0,50,-99.99,,,-99.99,MetarLogicWeatherSta,2013-05-25 19:27:00,
2013-05-25 15:32:00,54.2,34.3,30.17,WSW,247,8.0,-999.0,46,-99.99,,,-99.99,MetarLogicWeatherSta,2013-05-25 19:32:00,
2013-05-25 15:37:00,53.9,34.9,30.16,West,270,4.0,-999.0,48,-99.99,,,-99.99,MetarLogicWeatherSta,2013-05-25 19:37:00,
2013-05-25 15:42:00,54.0,34.8,30.17,West,267,4.0,11.0,47,-99.99,,,-99.99,MetarLogicWeatherSta,2013-05-25 19:42:00,
2013-05-25 15:47:00,54.1,35.2,30.17,West,270,3.0,-999.0,48,-99.99,,,-99.99,MetarLogicWeatherSta,2013-05-25 19:47:00,
2013-05-25 15:52:00,53.9,34.9,30.16,South,180,1.0,-999.0,48,-99.99,,,-99.99,MetarLogicWeatherSta,2013-05-25 19:52:00,
2013-05-25 15:57:00,53.9,34.0,30.16,SW,225,4.0,-999.0,46,-99.99,,,-99.99,MetarLogicWeatherSta,2013-05-25 19:57:00,
2013-05-25 16:02:00,53.8,34.9,30.16,SW,225,3.0,-999.0,48,-99.99,,,-99.99,MetarLogicWeatherSta,2013-05-25 20:02:00,
2013-05-25 16:07:00,53.6,35.0,30.16,SW,225,3.0,-999.0,49,-99.99,,,-99.99,MetarLogicWeatherSta,2013-05-25 20:07:00,
2013-05-25 16:12:00,53.7,35.7,30.16,West,260,2.5,8.0,50,-99.99,,,-99.99,MetarLogicWeatherSta,2013-05-25 20:12:00,
2013-05-25 16:17:00,54.1,34.9,30.15,WSW,247,3.0,-999.0,47,-99.99,,,-99.99,MetarLogicWeatherSta,2013-05-25 20:17:00,
2013-05-25 16:22:00,54.0,35.4,30.15,WNW,292,3.0,-999.0,48,-99.99,,,-99.99,MetarLogicWeatherSta,2013-05-25 20:22:00,
2013-05-25 16:27:00,54.2,35.5,30.15,SW,225,3.0,-999.0,48,-99.99,,,-99.99,MetarLogicWeatherSta,2013-05-25 20:27:00,
2013-05-25 16:32:00,54.0,34.3,30.15,WSW,247,0.0,-999.0,46,-99.99,,,-99.99,MetarLogicWeatherSta,2013-05-25 20:32:00,
2013-05-25 16:39:00,54.2,35.4,30.15,SW,225,4.0,-999.0,48,-99.99,,,-99.99,MetarLogicWeatherSta,2013-05-25 20:39:00,
2013-05-25 16:44:00,54.3,35.6,30.15,West,270,9.0,-999.0,48,-99.99,,,-99.99,MetarLogicWeatherSta,2013-05-25 20:44:00,
2013-05-25 16:49:00,54.1,35.1,30.15,SW,225,1.0,-999.0,48,-99.99,,,-99.99,MetarLogicWeatherSta,2013-05-25 20:49:00,
2013-05-25 16:54:00,54.3,35.6,30.15,WNW,292,3.0,-999.0,48,-99.99,,,-99.99,MetarLogicWeatherSta,2013-05-25 20:54:00,
2013-05-25 16:59:00,54.2,36.0,30.15,West,270,3.0,-999.0,49,-99.99,,,-99.99,MetarLogicWeatherSta,2013-05-25 20:59:00,
2013-05-25 17:04:00,54.6,35.8,30.15,SW,225,3.0,-999.0,48,-99.99,,,-99.99,MetarLogicWeatherSta,2013-05-25 21:04:00,
2013-05-25 17:09:00,54.7,36.1,30.15,SW,225,4.0,-999.0,49,-99.99,,,-99.99,MetarLogicWeatherSta,2013-05-25 21:09:00,
2013-05-25 17:14:00,54.6,34.8,30.15,WSW,247,6.0,-999.0,46,-99.99,,,-99.99,MetarLogicWeatherSta,2013-05-25 21:14:00,
2013-05-25 17:19:00,54.2,34.7,30.15,SW,225,1.0,-999.0,47,-99.99,,,-99.99,MetarLogicWeatherSta,2013-05-25 21:19:00,
2013-05-25 17:24:00,54.0,34.5,30.15,WSW,247,4.0,-999.0,47,-99.99,,,-99.99,MetarLogicWeatherSta,2013-05-25 21:24:00,
2013-05-25 17:29:00,54.0,34.0,30.15,WSW,247,3.0,-999.0,46,-99.99,,,-99.99,MetarLogicWeatherSta,2013-05-25 21:29:00,
2013-05-25 17:34:00,54.2,35.8,30.15,West,270,3.0,-999.0,49,-99.99,,,-99.99,MetarLogicWeatherSta,2013-05-25 21:34:00,
2013-05-25 17:39:00,54.0,36.2,30.15,WNW,292,6.0,-999.0,50,-99.99,,,-99.99,MetarLogicWeatherSta,2013-05-25 21:39:00,
2013-05-25 17:44:00,54.2,35.2,30.15,West,270,1.0,-999.0,48,-99.99,,,-99.99,MetarLogicWeatherSta,2013-05-25 21:44:00,
2013-05-25 17:49:00,54.3,35.6,30.15,West,270,1.0,-999.0,48,-99.99,,,-99.99,MetarLogicWeatherSta,2013-05-25 21:49:00,
2013-05-25 17:54:00,54.4,36.5,30.15,SSW,202,0.0,-999.0,50,-99.99,,,-99.99,MetarLogicWeatherSta,2013-05-25 21:54:00,
2013-05-25 17:59:00,54.3,34.7,30.14,WSW,247,4.0,-999.0,47,-99.99,,,-99.99,MetarLogicWeatherSta,2013-05-25 21:59:00,
2013-05-25 18:04:00,54.4,35.7,30.14,SW,225,1.0,-999.0,48,-99.99,,,-99.99,MetarLogicWeatherSta,2013-05-25 22:04:00,
2013-05-25 18:10:00,54.2,35.2,30.14,West,281,2.2,13.0,48,-99.99,,,-99.99,MetarLogicWeatherSta,2013-05-25 22:10:00,
2013-05-25 18:15:00,54.2,34.8,30.14,South,180,0.0,-999.0,47,-99.99,,,-99.99,MetarLogicWeatherSta,2013-05-25 22:15:00,
2013-05-25 18:21:00,54.3,36.7,30.14,SW,235,1.0,8.0,51,-99.99,,,-99.99,MetarLogicWeatherSta,2013-05-25 22:21:00,
2013-05-25 18:26:00,54.3,35.1,30.14,WNW,292,8.0,-999.0,47,-99.99,,,-99.99,MetarLogicWeatherSta,2013-05-25 22:26:00,
2013-05-25 18:31:00,54.2,35.5,30.14,West,270,1.0,-999.0,48,-99.99,,,-99.99,MetarLogicWeatherSta,2013-05-25 22:31:00,
2013-05-25 18:36:00,53.9,36.0,30.14,WSW,247,4.0,-999.0,50,-99.99,,,-99.99,MetarLogicWeatherSta,2013-05-25 22:36:00,
2013-05-25 18:41:00,54.1,36.5,30.14,SW,225,3.0,-999.0,50,-99.99,,,-99.99,MetarLogicWeatherSta,2013-05-25 22:41:00,
2013-05-25 18:46:00,54.2,36.5,30.14,SSW,202,1.0,-999.0,50,-99.99,,,-99.99,MetarLogicWeatherSta,2013-05-25 22:46:00,
2013-05-25 18:51:00,53.9,36.2,30.13,South,180,1.0,-999.0,50,-99.99,,,-99.99,MetarLogicWeatherSta,2013-05-25 22:51:00,
2013-05-25 18:56:00,53.9,36.6,30.13,SW,225,0.0,-999.0,51,-99.99,,,-99.99,MetarLogicWeatherSta,2013-05-25 22:56:00,
2013-05-25 19:01:00,53.8,36.2,30.14,West,270,4.0,-999.0,50,-99.99,,,-99.99,MetarLogicWeatherSta,2013-05-25 23:01:00,
2013-05-25 19:06:00,53.7,35.7,30.14,SW,225,3.0,-999.0,50,-99.99,,,-99.99,MetarLogicWeatherSta,2013-05-25 23:06:00,
2013-05-25 19:11:00,53.7,35.5,30.14,West,275,3.1,9.0,49,-99.99,,,-99.99,MetarLogicWeatherSta,2013-05-25 23:11:00,
2013-05-25 19:16:00,53.7,36.6,30.14,WNW,292,6.0,-999.0,51,-99.99,,,-99.99,MetarLogicWeatherSta,2013-05-25 23:16:00,
2013-05-25 19:23:00,53.6,36.2,30.14,WSW,251,2.7,11.0,51,-99.99,,,-99.99,MetarLogicWeatherSta,2013-05-25 23:23:00,
2013-05-25 19:28:00,53.5,35.8,30.14,West,268,2.5,8.0,50,-99.99,,,-99.99,MetarLogicWeatherSta,2013-05-25 23:28:00,
2013-05-25 19:33:00,53.4,36.6,30.14,WSW,247,1.0,-999.0,52,-99.99,,,-99.99,MetarLogicWeatherSta,2013-05-25 23:33:00,
2013-05-25 19:38:00,53.1,35.3,30.14,WSW,247,3.0,-999.0,50,-99.99,,,-99.99,MetarLogicWeatherSta,2013-05-25 23:38:00,
2013-05-25 19:43:00,53.2,35.9,30.14,SW,225,1.0,-999.0,51,-99.99,,,-99.99,MetarLogicWeatherSta,2013-05-25 23:43:00,
2013-05-25 19:48:00,52.8,36.6,30.14,WSW,247,4.0,-999.0,53,-99.99,,,-99.99,MetarLogicWeatherSta,2013-05-25 23:48:00,
2013-05-25 19:53:00,52.7,36.4,30.14,West,270,6.0,-999.0,53,-99.99,,,-99.99,MetarLogicWeatherSta,2013-05-25 23:53:00,
2013-05-25 19:58:00,52.7,36.5,30.14,SSW,202,0.0,-999.0,53,-99.99,,,-99.99,MetarLogicWeatherSta,2013-05-25 23:58:00,
2013-05-25 20:03:00,52.5,36.7,30.14,SSW,202,1.0,-999.0,54,-99.99,,,-99.99,MetarLogicWeatherSta,2013-05-26 00:03:00,
2013-05-25 20:11:00,52.1,36.9,30.15,SSW,202,1.0,-999.0,55,-99.99,,,-99.99,MetarLogicWeatherSta,2013-05-26 00:11:00,
2013-05-25 20:16:00,51.6,37.2,30.15,WSW,247,1.0,-999.0,57,-99.99,,,-99.99,MetarLogicWeatherSta,2013-05-26 00:16:00,
2013-05-25 20:21:00,51.5,37.2,30.14,WSW,247,0.0,-999.0,57,-99.99,,,-99.99,MetarLogicWeatherSta,2013-05-26 00:21:00,
2013-05-25 20:28:00,51.3,37.3,30.15,SSW,202,1.0,-999.0,58,-99.99,,,-99.99,MetarLogicWeatherSta,2013-05-26 00:28:00,
2013-05-25 20:33:00,50.7,37.6,30.14,SSW,202,0.0,-999.0,60,-99.99,,,-99.99,MetarLogicWeatherSta,2013-05-26 00:33:00,
2013-05-25 20:38:00,50.3,37.5,30.15,SW,225,1.0,-999.0,61,-99.99,,,-99.99,MetarLogicWeatherSta,2013-05-26 00:38:00,
2013-05-25 20:43:00,50.2,37.3,30.15,NW,315,3.0,-999.0,60,-99.99,,,-99.99,MetarLogicWeatherSta,2013-05-26 00:43:00,
2013-05-25 20:48:00,50.0,37.5,30.15,SW,225,0.0,-999.0,61,-99.99,,,-99.99,MetarLogicWeatherSta,2013-05-26 00:48:00,
2013-05-25 20:53:00,49.7,37.4,30.15,South,180,0.0,-999.0,62,-99.99,,,-99.99,MetarLogicWeatherSta,2013-05-26 00:53:00,
2013-05-25 20:58:00,49.5,37.3,30.15,SSW,202,1.0,-999.0,62,-99.99,,,-99.99,MetarLogicWeatherSta,2013-05-26 00:58:00,
2013-05-25 21:03:00,49.5,37.2,30.15,SW,225,1.0,-999.0,62,-99.99,,,-99.99,MetarLogicWeatherSta,2013-05-26 01:03:00,
2013-05-25 21:08:00,49.5,37.3,30.15,South,180,0.0,-999.0,62,-99.99,,,-99.99,MetarLogicWeatherSta,2013-05-26 01:08:00,
2013-05-25 21:13:00,49.0,37.6,30.15,SSW,202,1.0,-999.0,64,-99.99,,,-99.99,MetarLogicWeatherSta,2013-05-26 01:13:00,
2013-05-25 21:18:00,48.7,37.0,30.15,SSW,202,0.0,-999.0,63,-99.99,,,-99.99,MetarLogicWeatherSta,2013-05-26 01:18:00,
2013-05-25 21:23:00,48.6,37.3,30.15,SW,225,1.0,-999.0,64,-99.99,,,-99.99,MetarLogicWeatherSta,2013-05-26 01:23:00,
2013-05-25 21:28:00,48.2,36.9,30.15,SSW,202,0.0,-999.0,64,-99.99,,,-99.99,MetarLogicWeatherSta,2013-05-26 01:28:00,
2013-05-25 21:33:00,48.1,36.8,30.15,SW,225,0.0,-999.0,64,-99.99,,,-99.99,MetarLogicWeatherSta,2013-05-26 01:33:00,
2013-05-25 21:38:00,48.0,36.8,30.15,South,180,1.0,-999.0,65,-99.99,,,-99.99,MetarLogicWeatherSta,2013-05-26 01:38:00,
2013-05-25 21:43:00,47.9,36.9,30.15,West,270,1.0,-999.0,65,-99.99,,,-99.99,MetarLogicWeatherSta,2013-05-26 01:43:00,
2013-05-25 21:48:00,47.6,36.8,30.15,South,180,0.0,-999.0,65,-99.99,,,-99.99,MetarLogicWeatherSta,2013-05-26 01:48:00,
2013-05-25 21:53:00,47.5,36.6,30.15,SW,225,0.0,-999.0,65,-99.99,,,-99.99,MetarLogicWeatherSta,2013-05-26 01:53:00,
2013-05-25 21:58:00,47.4,36.6,30.15,West,270,1.0,-999.0,65,-99.99,,,-99.99,MetarLogicWeatherSta,2013-05-26 01:58:00,
2013-05-25 22:03:00,47.2,36.4,30.15,SW,225,1.0,-999.0,65,-99.99,,,-99.99,MetarLogicWeatherSta,2013-05-26 02:03:00,
2013-05-25 22:08:00,47.0,36.4,30.15,SSW,202,0.0,-999.0,66,-99.99,,,-99.99,MetarLogicWeatherSta,2013-05-26 02:08:00,
2013-05-25 22:13:00,46.8,36.3,30.15,South,180,0.0,-999.0,66,-99.99,,,-99.99,MetarLogicWeatherSta,2013-05-26 02:13:00,
2013-05-25 22:18:00,46.7,36.2,30.16,South,180,0.0,-999.0,66,-99.99,,,-99.99,MetarLogicWeatherSta,2013-05-26 02:18:00,
2013-05-25 22:23:00,46.4,36.3,30.15,South,180,0.0,-999.0,67,-99.99,,,-99.99,MetarLogicWeatherSta,2013-05-26 02:23:00,
2013-05-25 22:28:00,46.1,36.3,30.15,South,180,0.0,-999.0,68,-99.99,,,-99.99,MetarLogicWeatherSta,2013-05-26 02:28:00,
2013-05-25 22:33:00,45.8,36.2,30.16,SSW,202,1.0,-999.0,68,-99.99,,,-99.99,MetarLogicWeatherSta,2013-05-26 02:33:00,
2013-05-25 22:38:00,45.7,36.0,30.16,South,180,0.0,-999.0,68,-99.99,,,-99.99,MetarLogicWeatherSta,2013-05-26 02:38:00,
2013-05-25 22:43:00,45.6,36.0,30.16,South,180,0.0,-999.0,69,-99.99,,,-99.99,MetarLogicWeatherSta,2013-05-26 02:43:00,
2013-05-25 22:48:00,45.3,35.9,30.16,South,180,0.0,-999.0,69,-99.99,,,-99.99,MetarLogicWeatherSta,2013-05-26 02:48:00,
2013-05-25 22:53:00,44.8,35.7,30.16,South,180,0.0,-999.0,69,-99.99,,,-99.99,MetarLogicWeatherSta,2013-05-26 02:53:00,
2013-05-25 22:58:00,44.4,35.6,30.16,SSE,157,0.0,-999.0,70,-99.99,,,-99.99,MetarLogicWeatherSta,2013-05-26 02:58:00,
2013-05-25 23:03:00,44.3,35.3,30.16,SSE,157,0.0,-999.0,70,-99.99,,,-99.99,MetarLogicWeatherSta,2013-05-26 03:03:00,
2013-05-25 23:10:00,43.7,35.0,30.16,SSE,157,0.0,-999.0,71,-99.99,,,-99.99,MetarLogicWeatherSta,2013-05-26 03:10:00,
2013-05-25 23:15:00,43.3,35.0,30.16,SSE,157,0.0,-999.0,72,-99.99,,,-99.99,MetarLogicWeatherSta,2013-05-26 03:15:00,
2013-05-25 23:20:00,43.0,34.9,30.15,SSE,157,0.0,-999.0,72,-99.99,,,-99.99,MetarLogicWeatherSta,2013-05-26 03:20:00,
2013-05-25 23:25:00,42.9,35.0,30.16,SSE,157,0.0,-999.0,73,-99.99,,,-99.99,MetarLogicWeatherSta,2013-05-26 03:25:00,
2013-05-25 23:30:00,42.7,34.9,30.15,SSE,157,0.0,-999.0,73,-99.99,,,-99.99,MetarLogicWeatherSta,2013-05-26 03:30:00,
2013-05-25 23:35:00,42.4,34.8,30.15,SSE,157,0.0,-999.0,74,-99.99,,,-99.99,MetarLogicWeatherSta,2013-05-26 03:35:00,
2013-05-25 23:40:00,42.2,34.6,30.15,SSE,157,0.0,-999.0,74,-99.99,,,-99.99,MetarLogicWeatherSta,2013-05-26 03:40:00,
2013-05-25 23:46:00,41.8,34.5,30.15,South,180,0.0,0.0,74,-99.99,,,-99.99,MetarLogicWeatherSta,2013-05-26 03:46:00,
2013-05-25 23:51:00,41.6,34.3,30.15,South,180,0.0,0.0,75,-99.99,,,-99.99,MetarLogicWeatherSta,2013-05-26 03:51:00,
2013-05-25 23:56:00,41.3,34.2,30.15,SSE,157,0.0,-999.0,75,-99.99,,,-99.99,MetarLogicWeatherSta,2013-05-26 03:56:00,